»·PEaware :: N3021C KSDM-KCRQ

N3021C :: KSDM-KCRQ

FLIGHT INFORMATION

Flight Status: Arrived
Operator: Privately registered:
United States
More flights under this callsign
Pilot: Mark B. (9455)
Aircraft: CESSNA 172 SKYHAWK
(C172)
More flights by this aircraft type
Origin: KSDM Brown Mun
United States
Destination: KCRQ McClellan-Palomar
United States
More flights between these airports :: More routes between these airports
Route: +MZB V23 OCN
File this flight plan on PilotEdge
Remarks:
Altitude:
(Current/Filed)
6,000ft
Speed:
(Current/Filed)
115kts
Departed: 30-Aug-16 05:48 PM
Arrived: 30-Aug-16 06:31 PM
Distance/Time
Traveled:
37nm/0:43
Distance/Time
To Go:
Arrived

Flight Plot

Page will automatically refresh every two minutes.


Map Options




Map Legend


Flown Route
Filed Route
Departure Airport
Arrival Airport
Navaid (VOR, NDB)
Fix

Horizontal Profiles

Position Reports

Time Latitude Longitude Heading Altitude Ground
Speed
30-Aug-16 17:28 32.570625 -116.984972 282 519ft 0kts
30-Aug-16 17:29 32.570625 -116.984972 282 519ft 0kts
30-Aug-16 17:30 32.570625 -116.984972 282 519ft 0kts
30-Aug-16 17:31 32.570625 -116.984972 282 519ft 0kts
30-Aug-16 17:32 32.570625 -116.984972 282 519ft 0kts
30-Aug-16 17:33 32.570625 -116.984972 282 519ft 0kts
30-Aug-16 17:34 32.570768 -116.985118 4 519ft 6kts
30-Aug-16 17:35 32.570122 -116.977522 93 511ft 29kts
30-Aug-16 17:36 32.569362 -116.969324 95 506ft 20kts
30-Aug-16 17:37 32.570764 -116.968243 357 507ft 0kts
30-Aug-16 17:38 32.570764 -116.968243 357 507ft 0kts
30-Aug-16 17:39 32.570764 -116.968243 357 507ft 0kts
30-Aug-16 17:40 32.570764 -116.968243 357 507ft 0kts
30-Aug-16 17:41 32.570764 -116.968243 357 507ft 0kts
30-Aug-16 17:42 32.570764 -116.968243 357 507ft 0kts
30-Aug-16 17:43 32.570764 -116.968243 357 507ft 0kts
30-Aug-16 17:44 32.570764 -116.968243 357 507ft 0kts
30-Aug-16 17:45 32.570764 -116.968243 357 507ft 0kts
30-Aug-16 17:46 32.572081 -116.972644 276 525ft 75kts
30-Aug-16 17:47 32.576583 -117.000118 297 1584ft 83kts
30-Aug-16 17:48 32.583257 -117.027430 294 2629ft 88kts
30-Aug-16 17:49 32.593316 -117.058267 294 3009ft 112kts
30-Aug-16 17:50 32.604761 -117.093255 300 3106ft 110kts
30-Aug-16 17:51 32.626746 -117.115081 329 3818ft 100kts
30-Aug-16 17:52 32.651472 -117.131439 336 4469ft 103kts
30-Aug-16 17:53 32.676297 -117.148647 335 5114ft 104kts
30-Aug-16 17:54 32.701710 -117.165443 328 5693ft 106kts
30-Aug-16 17:55 32.726016 -117.183456 337 6050ft 102kts
30-Aug-16 17:56 32.753125 -117.200450 327 6032ft 112kts
30-Aug-16 17:57 32.779073 -117.221960 328 5987ft 114kts
30-Aug-16 17:58 32.807699 -117.236422 338 5974ft 114kts
30-Aug-16 17:59 32.836898 -117.248904 337 6023ft 111kts
30-Aug-16 18:00 32.866047 -117.262047 344 6025ft 110kts
30-Aug-16 18:01 32.895738 -117.274127 344 6027ft 108kts
30-Aug-16 18:02 32.925900 -117.285139 337 5811ft 117kts
30-Aug-16 18:03 32.950934 -117.297241 341 5365ft 114kts
30-Aug-16 18:04 32.986463 -117.311266 343 4696ft 116kts
30-Aug-16 18:05 33.011828 -117.321842 342 4238ft 115kts
30-Aug-16 18:06 33.044914 -117.335753 344 4015ft 97kts
30-Aug-16 18:07 33.066942 -117.345673 342 4053ft 109kts
30-Aug-16 18:08 33.095505 -117.360813 341 3982ft 114kts
30-Aug-16 18:09 33.123365 -117.372028 342 3979ft 99kts
30-Aug-16 18:10 33.137395 -117.378904 345 3982ft 99kts
30-Aug-16 18:11 33.139409 -117.379666 345 3980ft 99kts
30-Aug-16 18:12 33.165770 -117.389084 10 3975ft 98kts
30-Aug-16 18:13 33.191416 -117.397394 337 4058ft 97kts
30-Aug-16 18:14 33.216966 -117.406726 344 4113ft 97kts
30-Aug-16 18:15 33.242043 -117.420646 307 3764ft 107kts
30-Aug-16 18:16 33.248929 -117.454876 262 3430ft 108kts
30-Aug-16 18:17 33.228801 -117.453949 87 2967ft 102kts
30-Aug-16 18:18 33.240130 -117.427456 56 2951ft 89kts
30-Aug-16 18:19 33.233189 -117.400155 124 2851ft 84kts
30-Aug-16 18:20 33.215926 -117.378730 131 2485ft 90kts
30-Aug-16 18:21 33.196760 -117.359581 135 2065ft 89kts
30-Aug-16 18:22 33.177507 -117.341250 129 1467ft 85kts
30-Aug-16 18:23 33.161408 -117.320785 133 1243ft 82kts
30-Aug-16 18:24 33.147805 -117.298343 100 1071ft 81kts
30-Aug-16 18:25 33.152678 -117.275529 56 1089ft 73kts
30-Aug-16 18:26 33.150600 -117.255721 134 1180ft 75kts
30-Aug-16 18:27 33.130977 -117.255986 246 1180ft 84kts
30-Aug-16 18:28 33.128162 -117.280623 273 312ft 48kts
30-Aug-16 18:29 33.126337 -117.287367 106 293ft 8kts

Navigation Log

Ident Type
Flight plan parsing failed, navigation log unavailable